sensor_id;sensor_type;location;lat;lon;timestamp;temperature;humidity
46890;DHT22;32625;51.080;16.970;2024-02-21T00:00:56;6.80;99.90
46890;DHT22;32625;51.080;16.970;2024-02-21T00:03:23;6.80;99.90
46890;DHT22;32625;51.080;16.970;2024-02-21T00:05:49;6.80;99.90
46890;DHT22;32625;51.080;16.970;2024-02-21T00:08:16;6.80;99.90
46890;DHT22;32625;51.080;16.970;2024-02-21T00:10:44;6.80;99.90
46890;DHT22;32625;51.080;16.970;2024-02-21T00:13:11;6.80;99.90
46890;DHT22;32625;51.080;16.970;2024-02-21T00:15:38;6.80;99.90
46890;DHT22;32625;51.080;16.970;2024-02-21T00:18:05;6.70;99.90
46890;DHT22;32625;51.080;16.970;2024-02-21T00:20:32;6.70;99.90
46890;DHT22;32625;51.080;16.970;2024-02-21T00:22:59;6.70;99.90
46890;DHT22;32625;51.080;16.970;2024-02-21T00:25:26;6.70;99.90
46890;DHT22;32625;51.080;16.970;2024-02-21T00:27:53;6.70;99.90
46890;DHT22;32625;51.080;16.970;2024-02-21T00:30:20;6.70;99.90
46890;DHT22;32625;51.080;16.970;2024-02-21T00:32:48;6.70;99.90
46890;DHT22;32625;51.080;16.970;2024-02-21T00:35:15;6.70;99.90
46890;DHT22;32625;51.080;16.970;2024-02-21T00:37:42;6.80;99.90
46890;DHT22;32625;51.080;16.970;2024-02-21T00:40:09;6.80;99.90
46890;DHT22;32625;51.080;16.970;2024-02-21T00:42:36;6.70;99.90
46890;DHT22;32625;51.080;16.970;2024-02-21T00:45:04;6.70;99.90
46890;DHT22;32625;51.080;16.970;2024-02-21T00:47:31;6.70;99.90
46890;DHT22;32625;51.080;16.970;2024-02-21T00:49:58;6.80;99.90
46890;DHT22;32625;51.080;16.970;2024-02-21T00:52:25;6.80;99.90
46890;DHT22;32625;51.080;16.970;2024-02-21T00:54:52;6.80;99.90
46890;DHT22;32625;51.080;16.970;2024-02-21T00:57:21;6.80;99.90
46890;DHT22;32625;51.080;16.970;2024-02-21T00:59:47;6.80;99.90
46890;DHT22;32625;51.080;16.970;2024-02-21T01:02:14;6.80;99.90
46890;DHT22;32625;51.080;16.970;2024-02-21T01:04:42;6.80;99.90
46890;DHT22;32625;51.080;16.970;2024-02-21T01:07:09;6.70;99.90
46890;DHT22;32625;51.080;16.970;2024-02-21T01:09:36;6.80;99.90
46890;DHT22;32625;51.080;16.970;2024-02-21T01:12:03;6.80;99.90
46890;DHT22;32625;51.080;16.970;2024-02-21T01:14:30;6.80;99.90
46890;DHT22;32625;51.080;16.970;2024-02-21T01:16:57;6.80;99.90
46890;DHT22;32625;51.080;16.970;2024-02-21T01:19:24;6.80;99.90
46890;DHT22;32625;51.080;16.970;2024-02-21T01:21:52;6.80;99.90
46890;DHT22;32625;51.080;16.970;2024-02-21T01:24:18;6.80;99.90
46890;DHT22;32625;51.080;16.970;2024-02-21T01:26:45;6.80;99.90
46890;DHT22;32625;51.080;16.970;2024-02-21T01:29:13;6.80;99.90
46890;DHT22;32625;51.080;16.970;2024-02-21T01:31:40;6.80;99.90
46890;DHT22;32625;51.080;16.970;2024-02-21T01:34:07;6.80;99.90
46890;DHT22;32625;51.080;16.970;2024-02-21T01:36:34;6.80;99.90
46890;DHT22;32625;51.080;16.970;2024-02-21T01:39:01;6.80;99.90
46890;DHT22;32625;51.080;16.970;2024-02-21T01:41:30;6.80;99.90
46890;DHT22;32625;51.080;16.970;2024-02-21T01:43:58;6.90;99.90
46890;DHT22;32625;51.080;16.970;2024-02-21T01:46:25;6.90;99.90
46890;DHT22;32625;51.080;16.970;2024-02-21T01:48:58;6.90;99.90
46890;DHT22;32625;51.080;16.970;2024-02-21T01:51:25;6.90;99.90
46890;DHT22;32625;51.080;16.970;2024-02-21T01:53:53;6.90;99.90
46890;DHT22;32625;51.080;16.970;2024-02-21T01:56:22;6.90;99.90
46890;DHT22;32625;51.080;16.970;2024-02-21T01:58:49;6.80;99.90
46890;DHT22;32625;51.080;16.970;2024-02-21T02:01:17;6.90;99.90
46890;DHT22;32625;51.080;16.970;2024-02-21T02:03:49;6.90;99.90
46890;DHT22;32625;51.080;16.970;2024-02-21T02:06:16;6.90;99.90
46890;DHT22;32625;51.080;16.970;2024-02-21T02:08:44;6.80;99.90
46890;DHT22;32625;51.080;16.970;2024-02-21T02:11:13;6.80;99.90
46890;DHT22;32625;51.080;16.970;2024-02-21T02:13:40;6.80;99.90
46890;DHT22;32625;51.080;16.970;2024-02-21T02:16:07;6.80;99.90
46890;DHT22;32625;51.080;16.970;2024-02-21T02:18:35;6.80;99.90
46890;DHT22;32625;51.080;16.970;2024-02-21T02:21:08;6.80;99.90
46890;DHT22;32625;51.080;16.970;2024-02-21T02:23:37;6.80;99.90
46890;DHT22;32625;51.080;16.970;2024-02-21T02:26:05;6.80;99.90
46890;DHT22;32625;51.080;16.970;2024-02-21T02:28:34;6.80;99.90
46890;DHT22;32625;51.080;16.970;2024-02-21T02:31:01;6.70;99.90
46890;DHT22;32625;51.080;16.970;2024-02-21T02:33:28;6.70;99.90
46890;DHT22;32625;51.080;16.970;2024-02-21T02:35:55;6.70;99.90
46890;DHT22;32625;51.080;16.970;2024-02-21T02:38:22;6.60;99.90
46890;DHT22;32625;51.080;16.970;2024-02-21T02:40:49;6.60;99.90
46890;DHT22;32625;51.080;16.970;2024-02-21T02:43:16;6.60;99.90
46890;DHT22;32625;51.080;16.970;2024-02-21T02:45:43;6.60;99.90
46890;DHT22;32625;51.080;16.970;2024-02-21T02:48:10;6.60;99.90
46890;DHT22;32625;51.080;16.970;2024-02-21T02:50:37;6.60;99.90
46890;DHT22;32625;51.080;16.970;2024-02-21T02:53:04;6.60;99.90
46890;DHT22;32625;51.080;16.970;2024-02-21T02:55:31;6.50;99.90
46890;DHT22;32625;51.080;16.970;2024-02-21T02:57:58;6.50;99.90
46890;DHT22;32625;51.080;16.970;2024-02-21T03:00:26;6.50;99.90
46890;DHT22;32625;51.080;16.970;2024-02-21T03:02:54;6.40;99.90
46890;DHT22;32625;51.080;16.970;2024-02-21T03:05:21;6.50;99.90
46890;DHT22;32625;51.080;16.970;2024-02-21T03:07:49;6.40;99.90
46890;DHT22;32625;51.080;16.970;2024-02-21T03:10:17;6.40;99.90
46890;DHT22;32625;51.080;16.970;2024-02-21T03:12:45;6.40;99.90
46890;DHT22;32625;51.080;16.970;2024-02-21T03:15:13;6.50;99.90
46890;DHT22;32625;51.080;16.970;2024-02-21T03:17:41;6.50;99.90
46890;DHT22;32625;51.080;16.970;2024-02-21T03:20:09;6.40;99.90
46890;DHT22;32625;51.080;16.970;2024-02-21T03:22:39;6.40;99.90
46890;DHT22;32625;51.080;16.970;2024-02-21T03:25:11;6.40;99.90
46890;DHT22;32625;51.080;16.970;2024-02-21T03:27:39;6.50;99.90
46890;DHT22;32625;51.080;16.970;2024-02-21T03:30:06;6.50;99.90
46890;DHT22;32625;51.080;16.970;2024-02-21T03:32:34;6.50;99.90
46890;DHT22;32625;51.080;16.970;2024-02-21T03:35:01;6.50;99.90
46890;DHT22;32625;51.080;16.970;2024-02-21T03:37:28;6.60;99.90
46890;DHT22;32625;51.080;16.970;2024-02-21T03:39:55;6.50;99.90
46890;DHT22;32625;51.080;16.970;2024-02-21T03:42:22;6.50;99.90
46890;DHT22;32625;51.080;16.970;2024-02-21T03:44:49;6.50;99.90
46890;DHT22;32625;51.080;16.970;2024-02-21T03:47:16;6.50;99.90
46890;DHT22;32625;51.080;16.970;2024-02-21T03:49:43;6.50;99.90
46890;DHT22;32625;51.080;16.970;2024-02-21T03:52:10;6.50;99.90
46890;DHT22;32625;51.080;16.970;2024-02-21T03:54:37;6.50;99.90
46890;DHT22;32625;51.080;16.970;2024-02-21T03:57:05;6.60;99.90
46890;DHT22;32625;51.080;16.970;2024-02-21T03:59:33;6.60;99.90
46890;DHT22;32625;51.080;16.970;2024-02-21T04:02:00;6.60;99.90
46890;DHT22;32625;51.080;16.970;2024-02-21T04:04:27;6.60;99.90
46890;DHT22;32625;51.080;16.970;2024-02-21T04:06:54;6.60;99.90
46890;DHT22;32625;51.080;16.970;2024-02-21T04:09:21;6.60;99.90
46890;DHT22;32625;51.080;16.970;2024-02-21T04:11:48;6.60;99.90
46890;DHT22;32625;51.080;16.970;2024-02-21T04:14:15;6.60;99.90
46890;DHT22;32625;51.080;16.970;2024-02-21T04:16:43;6.60;99.90
46890;DHT22;32625;51.080;16.970;2024-02-21T04:19:10;6.50;99.90
46890;DHT22;32625;51.080;16.970;2024-02-21T04:21:37;6.50;99.90
46890;DHT22;32625;51.080;16.970;2024-02-21T04:24:04;6.60;99.90
46890;DHT22;32625;51.080;16.970;2024-02-21T04:26:33;6.50;99.90
46890;DHT22;32625;51.080;16.970;2024-02-21T04:29:01;6.50;99.90
46890;DHT22;32625;51.080;16.970;2024-02-21T04:31:29;6.50;99.90
46890;DHT22;32625;51.080;16.970;2024-02-21T04:33:56;6.50;99.90
46890;DHT22;32625;51.080;16.970;2024-02-21T04:36:23;6.50;99.90
46890;DHT22;32625;51.080;16.970;2024-02-21T04:38:51;6.50;99.90
46890;DHT22;32625;51.080;16.970;2024-02-21T04:41:18;6.50;99.90
46890;DHT22;32625;51.080;16.970;2024-02-21T04:43:48;6.50;99.90
46890;DHT22;32625;51.080;16.970;2024-02-21T04:46:16;6.50;99.90
46890;DHT22;32625;51.080;16.970;2024-02-21T04:48:43;6.50;99.90
46890;DHT22;32625;51.080;16.970;2024-02-21T04:51:11;6.50;99.90
46890;DHT22;32625;51.080;16.970;2024-02-21T04:53:40;6.50;99.90
46890;DHT22;32625;51.080;16.970;2024-02-21T04:56:07;6.50;99.90
46890;DHT22;32625;51.080;16.970;2024-02-21T04:58:38;6.50;99.90
46890;DHT22;32625;51.080;16.970;2024-02-21T05:01:06;6.50;99.90
46890;DHT22;32625;51.080;16.970;2024-02-21T05:03:34;6.50;99.90
46890;DHT22;32625;51.080;16.970;2024-02-21T05:06:01;6.50;99.90
46890;DHT22;32625;51.080;16.970;2024-02-21T05:08:28;6.50;99.90
46890;DHT22;32625;51.080;16.970;2024-02-21T05:10:55;6.50;99.90
46890;DHT22;32625;51.080;16.970;2024-02-21T05:13:23;6.60;99.90
46890;DHT22;32625;51.080;16.970;2024-02-21T05:15:50;6.60;99.90
46890;DHT22;32625;51.080;16.970;2024-02-21T05:18:17;6.60;99.90
46890;DHT22;32625;51.080;16.970;2024-02-21T05:20:44;6.50;99.90
46890;DHT22;32625;51.080;16.970;2024-02-21T05:23:11;6.50;99.90
46890;DHT22;32625;51.080;16.970;2024-02-21T05:25:38;6.50;99.90
46890;DHT22;32625;51.080;16.970;2024-02-21T05:28:05;6.50;99.90
46890;DHT22;32625;51.080;16.970;2024-02-21T05:30:33;6.60;99.90
46890;DHT22;32625;51.080;16.970;2024-02-21T05:33:07;6.50;99.90
46890;DHT22;32625;51.080;16.970;2024-02-21T05:35:35;6.50;99.90
46890;DHT22;32625;51.080;16.970;2024-02-21T05:38:02;6.50;99.90
46890;DHT22;32625;51.080;16.970;2024-02-21T05:40:38;6.50;99.90
46890;DHT22;32625;51.080;16.970;2024-02-21T05:43:05;6.50;99.90
46890;DHT22;32625;51.080;16.970;2024-02-21T05:45:32;6.60;99.90
46890;DHT22;32625;51.080;16.970;2024-02-21T05:47:59;6.60;99.90
46890;DHT22;32625;51.080;16.970;2024-02-21T05:50:26;6.60;99.90
46890;DHT22;32625;51.080;16.970;2024-02-21T05:52:55;6.60;99.90
46890;DHT22;32625;51.080;16.970;2024-02-21T05:55:25;6.60;99.90
46890;DHT22;32625;51.080;16.970;2024-02-21T05:57:54;6.60;99.90
46890;DHT22;32625;51.080;16.970;2024-02-21T06:00:22;6.70;99.90
46890;DHT22;32625;51.080;16.970;2024-02-21T06:02:49;6.70;99.90
46890;DHT22;32625;51.080;16.970;2024-02-21T06:05:16;6.70;99.90
46890;DHT22;32625;51.080;16.970;2024-02-21T06:07:44;6.70;99.90
46890;DHT22;32625;51.080;16.970;2024-02-21T06:10:11;6.70;99.90
46890;DHT22;32625;51.080;16.970;2024-02-21T06:12:38;6.70;99.90
46890;DHT22;32625;51.080;16.970;2024-02-21T06:15:05;6.70;99.90
46890;DHT22;32625;51.080;16.970;2024-02-21T06:17:32;6.70;99.90
46890;DHT22;32625;51.080;16.970;2024-02-21T06:19:59;6.70;99.90
46890;DHT22;32625;51.080;16.970;2024-02-21T06:22:26;6.70;99.90
46890;DHT22;32625;51.080;16.970;2024-02-21T06:24:53;6.70;99.90
46890;DHT22;32625;51.080;16.970;2024-02-21T06:27:21;6.70;99.90
46890;DHT22;32625;51.080;16.970;2024-02-21T06:29:48;6.70;99.90
46890;DHT22;32625;51.080;16.970;2024-02-21T06:32:15;6.70;99.90
46890;DHT22;32625;51.080;16.970;2024-02-21T06:34:42;6.70;99.90
46890;DHT22;32625;51.080;16.970;2024-02-21T06:37:09;6.80;99.90
46890;DHT22;32625;51.080;16.970;2024-02-21T06:39:37;6.80;99.90
46890;DHT22;32625;51.080;16.970;2024-02-21T06:42:04;6.80;99.90
46890;DHT22;32625;51.080;16.970;2024-02-21T06:44:31;6.70;99.90
46890;DHT22;32625;51.080;16.970;2024-02-21T06:47:02;6.80;99.90
46890;DHT22;32625;51.080;16.970;2024-02-21T06:49:29;6.80;99.90
46890;DHT22;32625;51.080;16.970;2024-02-21T06:51:56;6.80;99.90
46890;DHT22;32625;51.080;16.970;2024-02-21T06:54:23;6.90;99.90
46890;DHT22;32625;51.080;16.970;2024-02-21T06:56:50;6.90;99.90
46890;DHT22;32625;51.080;16.970;2024-02-21T06:59:17;6.90;99.90
46890;DHT22;32625;51.080;16.970;2024-02-21T07:01:47;6.90;99.90
46890;DHT22;32625;51.080;16.970;2024-02-21T07:04:14;6.90;99.90
46890;DHT22;32625;51.080;16.970;2024-02-21T07:06:42;7.00;99.90
46890;DHT22;32625;51.080;16.970;2024-02-21T07:09:09;7.00;99.90
46890;DHT22;32625;51.080;16.970;2024-02-21T07:11:36;7.00;99.90
46890;DHT22;32625;51.080;16.970;2024-02-21T07:14:03;6.90;99.90
46890;DHT22;32625;51.080;16.970;2024-02-21T07:16:30;7.00;99.90
46890;DHT22;32625;51.080;16.970;2024-02-21T07:18:59;7.10;99.90
46890;DHT22;32625;51.080;16.970;2024-02-21T07:21:26;7.10;99.90
46890;DHT22;32625;51.080;16.970;2024-02-21T07:23:54;7.00;99.90
46890;DHT22;32625;51.080;16.970;2024-02-21T07:26:21;7.10;99.90
46890;DHT22;32625;51.080;16.970;2024-02-21T07:28:48;7.10;99.90
46890;DHT22;32625;51.080;16.970;2024-02-21T07:31:15;7.10;99.90
46890;DHT22;32625;51.080;16.970;2024-02-21T07:33:43;7.10;99.90
46890;DHT22;32625;51.080;16.970;2024-02-21T07:36:11;7.10;99.90
46890;DHT22;32625;51.080;16.970;2024-02-21T07:38:38;7.10;99.90
46890;DHT22;32625;51.080;16.970;2024-02-21T07:41:05;7.10;99.90
46890;DHT22;32625;51.080;16.970;2024-02-21T07:43:32;7.10;99.90
46890;DHT22;32625;51.080;16.970;2024-02-21T07:46:00;7.10;99.90
46890;DHT22;32625;51.080;16.970;2024-02-21T07:48:26;7.10;99.90
46890;DHT22;32625;51.080;16.970;2024-02-21T07:50:53;7.20;99.90
46890;DHT22;32625;51.080;16.970;2024-02-21T07:53:21;7.20;99.90
46890;DHT22;32625;51.080;16.970;2024-02-21T07:55:48;7.20;99.90
46890;DHT22;32625;51.080;16.970;2024-02-21T07:58:15;7.30;99.90
46890;DHT22;32625;51.080;16.970;2024-02-21T08:00:42;7.20;99.90
46890;DHT22;32625;51.080;16.970;2024-02-21T08:03:09;7.30;99.90
46890;DHT22;32625;51.080;16.970;2024-02-21T08:05:36;7.30;99.90
46890;DHT22;32625;51.080;16.970;2024-02-21T08:08:03;7.30;99.90
46890;DHT22;32625;51.080;16.970;2024-02-21T08:10:31;7.30;99.90
46890;DHT22;32625;51.080;16.970;2024-02-21T08:12:58;7.40;99.90
46890;DHT22;32625;51.080;16.970;2024-02-21T08:15:25;7.40;99.90
46890;DHT22;32625;51.080;16.970;2024-02-21T08:17:56;7.40;99.90
46890;DHT22;32625;51.080;16.970;2024-02-21T08:20:27;7.50;99.90
46890;DHT22;32625;51.080;16.970;2024-02-21T08:22:54;7.50;99.90
46890;DHT22;32625;51.080;16.970;2024-02-21T08:25:21;7.50;99.90
46890;DHT22;32625;51.080;16.970;2024-02-21T08:27:48;7.50;99.90
46890;DHT22;32625;51.080;16.970;2024-02-21T08:30:15;7.60;99.90
46890;DHT22;32625;51.080;16.970;2024-02-21T08:32:42;7.60;99.90
46890;DHT22;32625;51.080;16.970;2024-02-21T08:35:09;7.60;99.90
46890;DHT22;32625;51.080;16.970;2024-02-21T08:37:37;7.70;99.90
46890;DHT22;32625;51.080;16.970;2024-02-21T08:40:04;7.70;99.90
46890;DHT22;32625;51.080;16.970;2024-02-21T08:42:36;7.70;99.90
46890;DHT22;32625;51.080;16.970;2024-02-21T08:45:05;7.80;99.90
46890;DHT22;32625;51.080;16.970;2024-02-21T08:47:32;7.80;99.90
46890;DHT22;32625;51.080;16.970;2024-02-21T08:49:59;7.80;99.90
46890;DHT22;32625;51.080;16.970;2024-02-21T08:52:40;7.80;99.90
46890;DHT22;32625;51.080;16.970;2024-02-21T08:55:08;7.80;99.90
46890;DHT22;32625;51.080;16.970;2024-02-21T08:57:35;7.80;99.90
46890;DHT22;32625;51.080;16.970;2024-02-21T09:00:04;7.80;99.90
46890;DHT22;32625;51.080;16.970;2024-02-21T09:02:41;7.80;99.90
46890;DHT22;32625;51.080;16.970;2024-02-21T09:05:11;7.90;99.90
46890;DHT22;32625;51.080;16.970;2024-02-21T09:07:39;7.90;99.90
46890;DHT22;32625;51.080;16.970;2024-02-21T09:10:06;7.90;99.90
46890;DHT22;32625;51.080;16.970;2024-02-21T09:12:33;7.90;99.90
46890;DHT22;32625;51.080;16.970;2024-02-21T09:15:00;8.00;99.90
46890;DHT22;32625;51.080;16.970;2024-02-21T09:17:27;8.00;99.90
46890;DHT22;32625;51.080;16.970;2024-02-21T09:19:56;8.00;99.90
46890;DHT22;32625;51.080;16.970;2024-02-21T09:22:27;8.00;99.90
46890;DHT22;32625;51.080;16.970;2024-02-21T09:24:54;8.00;99.90
46890;DHT22;32625;51.080;16.970;2024-02-21T09:27:21;8.00;99.90
46890;DHT22;32625;51.080;16.970;2024-02-21T09:29:49;8.00;99.90
46890;DHT22;32625;51.080;16.970;2024-02-21T09:32:17;8.00;99.90
46890;DHT22;32625;51.080;16.970;2024-02-21T09:34:44;8.00;99.90
46890;DHT22;32625;51.080;16.970;2024-02-21T09:37:12;8.00;99.90
46890;DHT22;32625;51.080;16.970;2024-02-21T09:39:38;8.00;99.90
46890;DHT22;32625;51.080;16.970;2024-02-21T09:42:06;8.00;99.90
46890;DHT22;32625;51.080;16.970;2024-02-21T09:44:37;8.10;99.90
46890;DHT22;32625;51.080;16.970;2024-02-21T09:47:10;8.10;99.90
46890;DHT22;32625;51.080;16.970;2024-02-21T09:49:40;8.20;99.90
46890;DHT22;32625;51.080;16.970;2024-02-21T09:52:10;8.20;99.90
46890;DHT22;32625;51.080;16.970;2024-02-21T09:54:41;8.30;99.90
46890;DHT22;32625;51.080;16.970;2024-02-21T09:57:11;8.30;99.90
46890;DHT22;32625;51.080;16.970;2024-02-21T09:59:39;8.30;99.90
46890;DHT22;32625;51.080;16.970;2024-02-21T10:02:08;8.30;99.90
46890;DHT22;32625;51.080;16.970;2024-02-21T10:04:35;8.30;99.90
46890;DHT22;32625;51.080;16.970;2024-02-21T10:07:03;8.30;99.90
46890;DHT22;32625;51.080;16.970;2024-02-21T10:09:31;8.30;99.90
46890;DHT22;32625;51.080;16.970;2024-02-21T10:12:10;8.40;99.90
46890;DHT22;32625;51.080;16.970;2024-02-21T10:14:39;8.30;99.90
46890;DHT22;32625;51.080;16.970;2024-02-21T10:17:06;8.30;99.90
46890;DHT22;32625;51.080;16.970;2024-02-21T10:19:38;8.30;99.90
46890;DHT22;32625;51.080;16.970;2024-02-21T10:22:08;8.30;99.90
46890;DHT22;32625;51.080;16.970;2024-02-21T10:24:37;8.30;99.90
46890;DHT22;32625;51.080;16.970;2024-02-21T10:27:08;8.30;99.90
46890;DHT22;32625;51.080;16.970;2024-02-21T10:29:36;8.20;99.90
46890;DHT22;32625;51.080;16.970;2024-02-21T10:32:10;8.30;99.90
46890;DHT22;32625;51.080;16.970;2024-02-21T10:34:40;8.30;99.90
46890;DHT22;32625;51.080;16.970;2024-02-21T10:37:11;8.30;99.90
46890;DHT22;32625;51.080;16.970;2024-02-21T10:39:39;8.30;99.90
46890;DHT22;32625;51.080;16.970;2024-02-21T10:42:07;8.20;99.90
46890;DHT22;32625;51.080;16.970;2024-02-21T10:44:38;8.30;99.90
46890;DHT22;32625;51.080;16.970;2024-02-21T10:47:10;8.30;99.90
46890;DHT22;32625;51.080;16.970;2024-02-21T10:49:44;8.30;99.90
46890;DHT22;32625;51.080;16.970;2024-02-21T10:52:25;8.30;99.90
46890;DHT22;32625;51.080;16.970;2024-02-21T10:55:16;8.30;99.90
46890;DHT22;32625;51.080;16.970;2024-02-21T10:57:46;8.30;99.90
46890;DHT22;32625;51.080;16.970;2024-02-21T11:00:17;8.40;99.90
46890;DHT22;32625;51.080;16.970;2024-02-21T11:02:46;8.40;99.90
46890;DHT22;32625;51.080;16.970;2024-02-21T11:05:15;8.40;99.90
46890;DHT22;32625;51.080;16.970;2024-02-21T11:07:43;8.50;99.90
46890;DHT22;32625;51.080;16.970;2024-02-21T11:10:23;8.50;99.90
46890;DHT22;32625;51.080;16.970;2024-02-21T11:13:06;8.60;99.90
46890;DHT22;32625;51.080;16.970;2024-02-21T11:15:34;8.60;99.90
46890;DHT22;32625;51.080;16.970;2024-02-21T11:18:01;8.60;99.90
46890;DHT22;32625;51.080;16.970;2024-02-21T11:20:36;8.70;99.90
46890;DHT22;32625;51.080;16.970;2024-02-21T11:23:04;8.70;99.90
46890;DHT22;32625;51.080;16.970;2024-02-21T11:25:32;8.70;99.90
46890;DHT22;32625;51.080;16.970;2024-02-21T11:28:05;8.70;99.90
46890;DHT22;32625;51.080;16.970;2024-02-21T11:30:36;8.70;99.90
46890;DHT22;32625;51.080;16.970;2024-02-21T11:33:08;8.80;99.90
46890;DHT22;32625;51.080;16.970;2024-02-21T11:35:36;8.80;99.90
46890;DHT22;32625;51.080;16.970;2024-02-21T11:38:13;8.80;99.90
46890;DHT22;32625;51.080;16.970;2024-02-21T11:40:45;8.80;99.90
46890;DHT22;32625;51.080;16.970;2024-02-21T11:43:13;8.90;99.90
46890;DHT22;32625;51.080;16.970;2024-02-21T11:45:40;8.90;99.90
46890;DHT22;32625;51.080;16.970;2024-02-21T11:48:07;8.90;99.90
46890;DHT22;32625;51.080;16.970;2024-02-21T11:50:35;9.00;99.90
46890;DHT22;32625;51.080;16.970;2024-02-21T11:53:03;9.00;99.90
46890;DHT22;32625;51.080;16.970;2024-02-21T11:55:30;9.00;99.90
46890;DHT22;32625;51.080;16.970;2024-02-21T11:57:58;9.00;99.90
46890;DHT22;32625;51.080;16.970;2024-02-21T12:00:25;9.00;99.90
46890;DHT22;32625;51.080;16.970;2024-02-21T12:02:52;9.00;99.90
46890;DHT22;32625;51.080;16.970;2024-02-21T12:05:19;8.90;99.90
46890;DHT22;32625;51.080;16.970;2024-02-21T12:07:47;9.00;99.90
46890;DHT22;32625;51.080;16.970;2024-02-21T12:10:14;9.00;99.90
46890;DHT22;32625;51.080;16.970;2024-02-21T12:12:41;9.00;99.90
46890;DHT22;32625;51.080;16.970;2024-02-21T12:15:08;9.00;99.90
46890;DHT22;32625;51.080;16.970;2024-02-21T12:17:37;9.00;99.90
46890;DHT22;32625;51.080;16.970;2024-02-21T12:20:05;9.00;99.90
46890;DHT22;32625;51.080;16.970;2024-02-21T12:22:37;9.00;99.90
46890;DHT22;32625;51.080;16.970;2024-02-21T12:25:16;9.00;99.90
46890;DHT22;32625;51.080;16.970;2024-02-21T12:27:45;9.00;99.90
46890;DHT22;32625;51.080;16.970;2024-02-21T12:30:12;9.10;99.90
46890;DHT22;32625;51.080;16.970;2024-02-21T12:32:39;9.10;99.90
46890;DHT22;32625;51.080;16.970;2024-02-21T12:35:08;9.20;99.90
46890;DHT22;32625;51.080;16.970;2024-02-21T12:37:35;9.20;99.90
46890;DHT22;32625;51.080;16.970;2024-02-21T12:40:06;9.10;99.90
46890;DHT22;32625;51.080;16.970;2024-02-21T12:42:34;9.20;99.90
46890;DHT22;32625;51.080;16.970;2024-02-21T12:45:02;9.20;99.90
46890;DHT22;32625;51.080;16.970;2024-02-21T12:47:30;9.10;99.90
46890;DHT22;32625;51.080;16.970;2024-02-21T12:49:58;9.10;99.90
46890;DHT22;32625;51.080;16.970;2024-02-21T12:52:25;9.10;99.90
46890;DHT22;32625;51.080;16.970;2024-02-21T12:54:52;9.10;99.90
46890;DHT22;32625;51.080;16.970;2024-02-21T12:57:23;9.10;99.90
46890;DHT22;32625;51.080;16.970;2024-02-21T12:59:54;9.20;99.90
46890;DHT22;32625;51.080;16.970;2024-02-21T13:02:21;9.10;99.90
46890;DHT22;32625;51.080;16.970;2024-02-21T13:04:48;9.20;99.90
46890;DHT22;32625;51.080;16.970;2024-02-21T13:07:15;9.10;99.90
46890;DHT22;32625;51.080;16.970;2024-02-21T13:09:42;9.10;99.90
46890;DHT22;32625;51.080;16.970;2024-02-21T13:12:09;9.10;99.90
46890;DHT22;32625;51.080;16.970;2024-02-21T13:14:36;9.10;99.90
46890;DHT22;32625;51.080;16.970;2024-02-21T13:17:06;9.10;99.90
46890;DHT22;32625;51.080;16.970;2024-02-21T13:19:33;9.10;99.90
46890;DHT22;32625;51.080;16.970;2024-02-21T13:22:01;9.10;99.90
46890;DHT22;32625;51.080;16.970;2024-02-21T13:24:30;9.10;99.90
46890;DHT22;32625;51.080;16.970;2024-02-21T13:26:57;9.10;99.90
46890;DHT22;32625;51.080;16.970;2024-02-21T13:29:24;9.10;99.90
46890;DHT22;32625;51.080;16.970;2024-02-21T13:31:51;9.20;99.90
46890;DHT22;32625;51.080;16.970;2024-02-21T13:34:18;9.20;99.90
46890;DHT22;32625;51.080;16.970;2024-02-21T13:36:46;9.10;99.90
46890;DHT22;32625;51.080;16.970;2024-02-21T13:39:13;9.20;99.90
46890;DHT22;32625;51.080;16.970;2024-02-21T13:41:42;9.20;99.90
46890;DHT22;32625;51.080;16.970;2024-02-21T13:44:10;9.20;99.90
46890;DHT22;32625;51.080;16.970;2024-02-21T13:46:39;9.20;99.90
46890;DHT22;32625;51.080;16.970;2024-02-21T13:49:07;9.30;99.90
46890;DHT22;32625;51.080;16.970;2024-02-21T13:51:35;9.30;99.90
46890;DHT22;32625;51.080;16.970;2024-02-21T13:54:05;9.30;99.90
46890;DHT22;32625;51.080;16.970;2024-02-21T13:56:32;9.30;99.90
46890;DHT22;32625;51.080;16.970;2024-02-21T13:58:59;9.30;99.90
46890;DHT22;32625;51.080;16.970;2024-02-21T14:01:27;9.40;99.90
46890;DHT22;32625;51.080;16.970;2024-02-21T14:03:59;9.40;99.90
46890;DHT22;32625;51.080;16.970;2024-02-21T14:06:26;9.40;99.90
46890;DHT22;32625;51.080;16.970;2024-02-21T14:08:53;9.40;99.90
46890;DHT22;32625;51.080;16.970;2024-02-21T14:11:21;9.40;99.90
46890;DHT22;32625;51.080;16.970;2024-02-21T14:13:48;9.40;99.90
46890;DHT22;32625;51.080;16.970;2024-02-21T14:16:15;9.50;99.90
46890;DHT22;32625;51.080;16.970;2024-02-21T14:18:42;9.40;99.90
46890;DHT22;32625;51.080;16.970;2024-02-21T14:21:10;9.50;99.90
46890;DHT22;32625;51.080;16.970;2024-02-21T14:23:38;9.50;99.90
46890;DHT22;32625;51.080;16.970;2024-02-21T14:26:05;9.50;99.90
46890;DHT22;32625;51.080;16.970;2024-02-21T14:28:33;9.50;99.90
46890;DHT22;32625;51.080;16.970;2024-02-21T14:31:00;9.40;99.90
46890;DHT22;32625;51.080;16.970;2024-02-21T14:33:27;9.50;99.90
46890;DHT22;32625;51.080;16.970;2024-02-21T14:35:55;9.50;99.90
46890;DHT22;32625;51.080;16.970;2024-02-21T14:38:22;9.50;99.90
46890;DHT22;32625;51.080;16.970;2024-02-21T14:40:49;9.50;99.90
46890;DHT22;32625;51.080;16.970;2024-02-21T14:43:16;9.50;99.90
46890;DHT22;32625;51.080;16.970;2024-02-21T14:45:44;9.50;99.90
46890;DHT22;32625;51.080;16.970;2024-02-21T14:48:14;9.50;99.90
46890;DHT22;32625;51.080;16.970;2024-02-21T14:50:42;9.50;99.90
46890;DHT22;32625;51.080;16.970;2024-02-21T14:53:09;9.50;99.90
46890;DHT22;32625;51.080;16.970;2024-02-21T14:55:36;9.50;99.90
46890;DHT22;32625;51.080;16.970;2024-02-21T14:58:08;9.40;99.90
46890;DHT22;32625;51.080;16.970;2024-02-21T15:00:35;9.40;99.90
46890;DHT22;32625;51.080;16.970;2024-02-21T15:03:02;9.40;99.90
46890;DHT22;32625;51.080;16.970;2024-02-21T15:05:29;9.40;99.90
46890;DHT22;32625;51.080;16.970;2024-02-21T15:07:57;9.30;99.90
46890;DHT22;32625;51.080;16.970;2024-02-21T15:10:27;9.40;99.90
46890;DHT22;32625;51.080;16.970;2024-02-21T15:12:53;9.30;99.90
46890;DHT22;32625;51.080;16.970;2024-02-21T15:15:21;9.30;99.90
46890;DHT22;32625;51.080;16.970;2024-02-21T15:17:48;9.30;99.90
46890;DHT22;32625;51.080;16.970;2024-02-21T15:20:15;9.30;99.90
46890;DHT22;32625;51.080;16.970;2024-02-21T15:22:42;9.20;99.90
46890;DHT22;32625;51.080;16.970;2024-02-21T15:25:09;9.30;99.90
46890;DHT22;32625;51.080;16.970;2024-02-21T15:27:42;9.20;99.90
46890;DHT22;32625;51.080;16.970;2024-02-21T15:30:11;9.20;99.90
46890;DHT22;32625;51.080;16.970;2024-02-21T15:32:38;9.20;99.90
46890;DHT22;32625;51.080;16.970;2024-02-21T15:35:06;9.20;99.90